sensor_id;sensor_type;location;lat;lon;timestamp;P1;durP1;ratioP1;P2;durP2;ratioP2
66587;SDS011;53446;50.076;8.198;2023-06-01T00:01:31;20.23;;;10.00;;
66587;SDS011;53446;50.076;8.198;2023-06-01T00:03:33;20.27;;;10.30;;
66587;SDS011;53446;50.076;8.198;2023-06-01T00:05:33;21.93;;;10.30;;
66587;SDS011;53446;50.076;8.198;2023-06-01T00:07:33;19.23;;;9.00;;
66587;SDS011;53446;50.076;8.198;2023-06-01T00:09:34;19.80;;;10.23;;
66587;SDS011;53446;50.076;8.198;2023-06-01T00:11:35;17.80;;;9.33;;
66587;SDS011;53446;50.076;8.198;2023-06-01T00:13:35;17.53;;;8.57;;
66587;SDS011;53446;50.076;8.198;2023-06-01T00:15:35;19.80;;;9.50;;
66587;SDS011;53446;50.076;8.198;2023-06-01T00:17:36;17.90;;;9.10;;
66587;SDS011;53446;50.076;8.198;2023-06-01T00:19:36;20.23;;;9.10;;
66587;SDS011;53446;50.076;8.198;2023-06-01T00:21:40;20.35;;;10.05;;
66587;SDS011;53446;50.076;8.198;2023-06-01T00:23:41;18.90;;;9.80;;
66587;SDS011;53446;50.076;8.198;2023-06-01T00:25:42;20.15;;;9.32;;
66587;SDS011;53446;50.076;8.198;2023-06-01T00:27:43;18.73;;;9.30;;
66587;SDS011;53446;50.076;8.198;2023-06-01T00:29:43;19.93;;;9.03;;
66587;SDS011;53446;50.076;8.198;2023-06-01T00:31:43;19.83;;;10.23;;
66587;SDS011;53446;50.076;8.198;2023-06-01T00:33:44;21.25;;;9.65;;
66587;SDS011;53446;50.076;8.198;2023-06-01T00:35:45;20.17;;;9.60;;
66587;SDS011;53446;50.076;8.198;2023-06-01T00:37:46;17.90;;;8.93;;
66587;SDS011;53446;50.076;8.198;2023-06-01T00:39:46;19.87;;;10.23;;
66587;SDS011;53446;50.076;8.198;2023-06-01T00:41:46;19.63;;;9.03;;
66587;SDS011;53446;50.076;8.198;2023-06-01T00:43:46;22.30;;;10.50;;
66587;SDS011;53446;50.076;8.198;2023-06-01T00:45:47;22.23;;;10.70;;
66587;SDS011;53446;50.076;8.198;2023-06-01T00:47:47;21.57;;;9.50;;
66587;SDS011;53446;50.076;8.198;2023-06-01T00:49:47;19.85;;;9.93;;
66587;SDS011;53446;50.076;8.198;2023-06-01T00:51:48;24.20;;;11.98;;
66587;SDS011;53446;50.076;8.198;2023-06-01T00:53:48;19.43;;;9.33;;
66587;SDS011;53446;50.076;8.198;2023-06-01T00:55:49;20.93;;;9.70;;
66587;SDS011;53446;50.076;8.198;2023-06-01T00:57:50;20.77;;;10.07;;
66587;SDS011;53446;50.076;8.198;2023-06-01T00:59:51;18.00;;;9.32;;
66587;SDS011;53446;50.076;8.198;2023-06-01T01:01:51;18.90;;;9.20;;
66587;SDS011;53446;50.076;8.198;2023-06-01T01:03:52;20.95;;;9.50;;
66587;SDS011;53446;50.076;8.198;2023-06-01T01:06:17;20.25;;;10.85;;
66587;SDS011;53446;50.076;8.198;2023-06-01T01:08:31;21.75;;;12.57;;
66587;SDS011;53446;50.076;8.198;2023-06-01T01:10:49;22.10;;;10.48;;
66587;SDS011;53446;50.076;8.198;2023-06-01T01:15:07;20.98;;;11.65;;
66587;SDS011;53446;50.076;8.198;2023-06-01T01:17:13;21.90;;;11.25;;
66587;SDS011;53446;50.076;8.198;2023-06-01T01:21:32;19.67;;;10.27;;
66587;SDS011;53446;50.076;8.198;2023-06-01T01:28:42;19.35;;;10.43;;
66587;SDS011;53446;50.076;8.198;2023-06-01T01:30:44;22.02;;;11.95;;
66587;SDS011;53446;50.076;8.198;2023-06-01T01:32:45;19.83;;;10.70;;
66587;SDS011;53446;50.076;8.198;2023-06-01T01:34:45;23.52;;;12.55;;
66587;SDS011;53446;50.076;8.198;2023-06-01T01:36:47;24.27;;;11.43;;
66587;SDS011;53446;50.076;8.198;2023-06-01T01:38:47;24.23;;;12.75;;
66587;SDS011;53446;50.076;8.198;2023-06-01T01:40:48;25.40;;;12.60;;
66587;SDS011;53446;50.076;8.198;2023-06-01T01:42:52;21.70;;;12.10;;
66587;SDS011;53446;50.076;8.198;2023-06-01T01:44:53;21.27;;;11.57;;
66587;SDS011;53446;50.076;8.198;2023-06-01T01:46:57;22.57;;;12.07;;
66587;SDS011;53446;50.076;8.198;2023-06-01T01:51:30;21.95;;;12.93;;
66587;SDS011;53446;50.076;8.198;2023-06-01T01:53:32;19.90;;;10.75;;
66587;SDS011;53446;50.076;8.198;2023-06-01T01:55:33;20.97;;;11.57;;
66587;SDS011;53446;50.076;8.198;2023-06-01T01:57:34;19.75;;;10.98;;
66587;SDS011;53446;50.076;8.198;2023-06-01T01:59:35;23.35;;;12.50;;
66587;SDS011;53446;50.076;8.198;2023-06-01T02:01:36;24.47;;;13.50;;
66587;SDS011;53446;50.076;8.198;2023-06-01T02:03:37;21.02;;;11.55;;
66587;SDS011;53446;50.076;8.198;2023-06-01T02:05:37;21.33;;;11.93;;
66587;SDS011;53446;50.076;8.198;2023-06-01T02:07:37;22.42;;;12.65;;
66587;SDS011;53446;50.076;8.198;2023-06-01T02:09:38;23.20;;;13.00;;
66587;SDS011;53446;50.076;8.198;2023-06-01T02:11:39;24.77;;;15.27;;
66587;SDS011;53446;50.076;8.198;2023-06-01T02:13:39;22.73;;;13.67;;
66587;SDS011;53446;50.076;8.198;2023-06-01T02:15:39;26.70;;;14.85;;
66587;SDS011;53446;50.076;8.198;2023-06-01T02:17:40;23.70;;;14.90;;
66587;SDS011;53446;50.076;8.198;2023-06-01T02:19:41;27.93;;;17.73;;
66587;SDS011;53446;50.076;8.198;2023-06-01T02:21:42;22.00;;;14.45;;
66587;SDS011;53446;50.076;8.198;2023-06-01T02:23:42;24.00;;;16.03;;
66587;SDS011;53446;50.076;8.198;2023-06-01T02:25:43;27.17;;;17.05;;
66587;SDS011;53446;50.076;8.198;2023-06-01T02:27:43;26.15;;;16.83;;
66587;SDS011;53446;50.076;8.198;2023-06-01T02:29:43;25.30;;;14.23;;
66587;SDS011;53446;50.076;8.198;2023-06-01T02:31:44;22.57;;;14.03;;
66587;SDS011;53446;50.076;8.198;2023-06-01T02:33:44;22.50;;;14.10;;
66587;SDS011;53446;50.076;8.198;2023-06-01T02:35:44;23.57;;;15.40;;
66587;SDS011;53446;50.076;8.198;2023-06-01T02:37:45;28.47;;;17.20;;
66587;SDS011;53446;50.076;8.198;2023-06-01T02:39:45;24.27;;;15.25;;
66587;SDS011;53446;50.076;8.198;2023-06-01T02:41:47;25.55;;;14.70;;
66587;SDS011;53446;50.076;8.198;2023-06-01T02:43:47;23.87;;;15.77;;
66587;SDS011;53446;50.076;8.198;2023-06-01T02:45:50;24.30;;;17.48;;
66587;SDS011;53446;50.076;8.198;2023-06-01T02:47:50;31.03;;;23.30;;
66587;SDS011;53446;50.076;8.198;2023-06-01T02:49:51;29.80;;;23.43;;
66587;SDS011;53446;50.076;8.198;2023-06-01T02:51:51;28.90;;;23.60;;
66587;SDS011;53446;50.076;8.198;2023-06-01T02:53:51;28.97;;;23.90;;
66587;SDS011;53446;50.076;8.198;2023-06-01T02:55:51;28.80;;;24.30;;
66587;SDS011;53446;50.076;8.198;2023-06-01T02:57:52;39.17;;;28.77;;
66587;SDS011;53446;50.076;8.198;2023-06-01T02:59:52;34.05;;;27.00;;
66587;SDS011;53446;50.076;8.198;2023-06-01T03:01:52;32.77;;;26.80;;
66587;SDS011;53446;50.076;8.198;2023-06-01T03:03:53;33.97;;;27.27;;
66587;SDS011;53446;50.076;8.198;2023-06-01T03:05:54;30.58;;;25.08;;
66587;SDS011;53446;50.076;8.198;2023-06-01T03:07:55;38.60;;;25.50;;
66587;SDS011;53446;50.076;8.198;2023-06-01T03:09:56;29.17;;;23.85;;
66587;SDS011;53446;50.076;8.198;2023-06-01T03:11:56;29.03;;;20.43;;
66587;SDS011;53446;50.076;8.198;2023-06-01T03:13:56;22.77;;;14.43;;
66587;SDS011;53446;50.076;8.198;2023-06-01T03:15:57;22.17;;;14.43;;
66587;SDS011;53446;50.076;8.198;2023-06-01T03:17:57;29.80;;;16.37;;
66587;SDS011;53446;50.076;8.198;2023-06-01T03:19:57;24.00;;;14.90;;
66587;SDS011;53446;50.076;8.198;2023-06-01T03:21:58;22.88;;;13.68;;
66587;SDS011;53446;50.076;8.198;2023-06-01T03:23:58;23.87;;;16.30;;
66587;SDS011;53446;50.076;8.198;2023-06-01T03:25:58;23.83;;;16.23;;
66587;SDS011;53446;50.076;8.198;2023-06-01T03:27:59;26.63;;;18.63;;
66587;SDS011;53446;50.076;8.198;2023-06-01T03:29:59;26.07;;;18.33;;
66587;SDS011;53446;50.076;8.198;2023-06-01T03:32:01;26.45;;;18.40;;
66587;SDS011;53446;50.076;8.198;2023-06-01T03:34:02;28.20;;;17.77;;
66587;SDS011;53446;50.076;8.198;2023-06-01T03:36:02;24.70;;;17.40;;
66587;SDS011;53446;50.076;8.198;2023-06-01T03:38:03;28.15;;;17.35;;
66587;SDS011;53446;50.076;8.198;2023-06-01T03:40:04;24.83;;;17.50;;
66587;SDS011;53446;50.076;8.198;2023-06-01T03:42:10;26.17;;;18.10;;
66587;SDS011;53446;50.076;8.198;2023-06-01T03:44:11;26.03;;;17.67;;
66587;SDS011;53446;50.076;8.198;2023-06-01T03:46:11;24.98;;;16.98;;
66587;SDS011;53446;50.076;8.198;2023-06-01T03:48:12;25.33;;;17.80;;
66587;SDS011;53446;50.076;8.198;2023-06-01T03:50:12;26.03;;;19.30;;
66587;SDS011;53446;50.076;8.198;2023-06-01T03:52:13;29.00;;;19.70;;
66587;SDS011;53446;50.076;8.198;2023-06-01T03:54:16;28.20;;;21.13;;
66587;SDS011;53446;50.076;8.198;2023-06-01T03:56:16;28.33;;;18.77;;
66587;SDS011;53446;50.076;8.198;2023-06-01T03:58:17;24.33;;;18.02;;
66587;SDS011;53446;50.076;8.198;2023-06-01T04:00:19;24.53;;;19.07;;
66587;SDS011;53446;50.076;8.198;2023-06-01T04:02:19;26.90;;;18.90;;
66587;SDS011;53446;50.076;8.198;2023-06-01T04:04:20;25.83;;;18.10;;
66587;SDS011;53446;50.076;8.198;2023-06-01T04:06:23;23.40;;;17.25;;
66587;SDS011;53446;50.076;8.198;2023-06-01T04:08:24;23.17;;;15.88;;
66587;SDS011;53446;50.076;8.198;2023-06-01T04:10:27;23.25;;;15.98;;
66587;SDS011;53446;50.076;8.198;2023-06-01T04:12:28;24.00;;;16.27;;
66587;SDS011;53446;50.076;8.198;2023-06-01T04:14:28;23.93;;;16.30;;
66587;SDS011;53446;50.076;8.198;2023-06-01T04:16:28;24.00;;;17.20;;
66587;SDS011;53446;50.076;8.198;2023-06-01T04:18:29;26.60;;;15.63;;
66587;SDS011;53446;50.076;8.198;2023-06-01T04:20:29;23.00;;;16.20;;
66587;SDS011;53446;50.076;8.198;2023-06-01T04:22:31;23.63;;;15.85;;
66587;SDS011;53446;50.076;8.198;2023-06-01T04:24:32;25.80;;;17.00;;
66587;SDS011;53446;50.076;8.198;2023-06-01T04:26:32;25.43;;;16.80;;
66587;SDS011;53446;50.076;8.198;2023-06-01T04:28:33;23.20;;;14.97;;
66587;SDS011;53446;50.076;8.198;2023-06-01T04:30:33;23.87;;;15.03;;
66587;SDS011;53446;50.076;8.198;2023-06-01T04:32:34;24.53;;;16.93;;
66587;SDS011;53446;50.076;8.198;2023-06-01T04:34:35;22.90;;;15.98;;
66587;SDS011;53446;50.076;8.198;2023-06-01T04:36:35;24.70;;;17.03;;
66587;SDS011;53446;50.076;8.198;2023-06-01T04:38:42;25.27;;;16.35;;
66587;SDS011;53446;50.076;8.198;2023-06-01T04:40:42;23.33;;;15.13;;
66587;SDS011;53446;50.076;8.198;2023-06-01T04:42:45;25.15;;;16.13;;
66587;SDS011;53446;50.076;8.198;2023-06-01T04:44:55;24.00;;;15.47;;
66587;SDS011;53446;50.076;8.198;2023-06-01T04:46:58;22.90;;;14.70;;
66587;SDS011;53446;50.076;8.198;2023-06-01T04:49:03;24.48;;;15.13;;
66587;SDS011;53446;50.076;8.198;2023-06-01T04:51:04;25.60;;;14.85;;
66587;SDS011;53446;50.076;8.198;2023-06-01T04:53:05;20.90;;;14.47;;
66587;SDS011;53446;50.076;8.198;2023-06-01T04:55:05;20.80;;;13.70;;
66587;SDS011;53446;50.076;8.198;2023-06-01T04:57:07;24.50;;;14.50;;
66587;SDS011;53446;50.076;8.198;2023-06-01T04:59:07;24.43;;;14.23;;
66587;SDS011;53446;50.076;8.198;2023-06-01T05:01:07;23.83;;;17.13;;
66587;SDS011;53446;50.076;8.198;2023-06-01T05:03:07;24.83;;;15.33;;
66587;SDS011;53446;50.076;8.198;2023-06-01T05:05:08;22.70;;;13.90;;
66587;SDS011;53446;50.076;8.198;2023-06-01T05:07:08;27.33;;;15.55;;
66587;SDS011;53446;50.076;8.198;2023-06-01T05:09:08;24.43;;;15.80;;
66587;SDS011;53446;50.076;8.198;2023-06-01T05:11:09;22.77;;;15.00;;
66587;SDS011;53446;50.076;8.198;2023-06-01T05:13:09;22.37;;;14.40;;
66587;SDS011;53446;50.076;8.198;2023-06-01T05:15:10;24.17;;;15.27;;
66587;SDS011;53446;50.076;8.198;2023-06-01T05:17:11;23.27;;;14.50;;
66587;SDS011;53446;50.076;8.198;2023-06-01T05:19:12;24.17;;;12.97;;
66587;SDS011;53446;50.076;8.198;2023-06-01T05:21:12;20.60;;;10.70;;
66587;SDS011;53446;50.076;8.198;2023-06-01T05:23:13;21.53;;;12.60;;
66587;SDS011;53446;50.076;8.198;2023-06-01T05:25:13;21.10;;;11.47;;
66587;SDS011;53446;50.076;8.198;2023-06-01T05:27:14;21.85;;;12.25;;
66587;SDS011;53446;50.076;8.198;2023-06-01T05:29:14;23.10;;;13.20;;
66587;SDS011;53446;50.076;8.198;2023-06-01T05:31:14;22.80;;;12.33;;
66587;SDS011;53446;50.076;8.198;2023-06-01T05:33:15;19.70;;;12.03;;
66587;SDS011;53446;50.076;8.198;2023-06-01T05:35:15;21.23;;;11.87;;
66587;SDS011;53446;50.076;8.198;2023-06-01T05:37:15;21.80;;;12.33;;
66587;SDS011;53446;50.076;8.198;2023-06-01T05:39:16;21.45;;;11.20;;
66587;SDS011;53446;50.076;8.198;2023-06-01T05:41:16;20.67;;;11.60;;
66587;SDS011;53446;50.076;8.198;2023-06-01T05:43:16;20.30;;;10.47;;
66587;SDS011;53446;50.076;8.198;2023-06-01T05:45:17;20.10;;;10.27;;
66587;SDS011;53446;50.076;8.198;2023-06-01T05:47:17;19.97;;;10.63;;
66587;SDS011;53446;50.076;8.198;2023-06-01T05:49:17;21.93;;;10.83;;
66587;SDS011;53446;50.076;8.198;2023-06-01T05:51:18;19.67;;;9.73;;
66587;SDS011;53446;50.076;8.198;2023-06-01T05:53:18;18.00;;;9.48;;
66587;SDS011;53446;50.076;8.198;2023-06-01T05:55:18;20.40;;;10.40;;
66587;SDS011;53446;50.076;8.198;2023-06-01T05:57:19;19.90;;;9.77;;
66587;SDS011;53446;50.076;8.198;2023-06-01T05:59:20;19.77;;;10.13;;
66587;SDS011;53446;50.076;8.198;2023-06-01T06:01:20;19.00;;;10.30;;
66587;SDS011;53446;50.076;8.198;2023-06-01T06:03:22;18.95;;;9.38;;
66587;SDS011;53446;50.076;8.198;2023-06-01T06:05:22;19.83;;;10.07;;
66587;SDS011;53446;50.076;8.198;2023-06-01T06:07:22;19.43;;;9.60;;
66587;SDS011;53446;50.076;8.198;2023-06-01T06:09:23;18.60;;;9.43;;
66587;SDS011;53446;50.076;8.198;2023-06-01T06:11:23;18.35;;;9.27;;
66587;SDS011;53446;50.076;8.198;2023-06-01T06:13:23;18.10;;;8.47;;
66587;SDS011;53446;50.076;8.198;2023-06-01T06:15:24;17.97;;;8.87;;
66587;SDS011;53446;50.076;8.198;2023-06-01T06:17:24;19.87;;;9.23;;
66587;SDS011;53446;50.076;8.198;2023-06-01T06:19:25;19.40;;;9.30;;
66587;SDS011;53446;50.076;8.198;2023-06-01T06:21:25;18.80;;;9.70;;
66587;SDS011;53446;50.076;8.198;2023-06-01T06:23:25;20.27;;;9.48;;
66587;SDS011;53446;50.076;8.198;2023-06-01T06:25:27;21.55;;;10.15;;
66587;SDS011;53446;50.076;8.198;2023-06-01T06:27:27;21.27;;;10.00;;
66587;SDS011;53446;50.076;8.198;2023-06-01T06:29:29;19.80;;;8.88;;
66587;SDS011;53446;50.076;8.198;2023-06-01T06:31:29;20.05;;;9.65;;
66587;SDS011;53446;50.076;8.198;2023-06-01T06:33:29;17.97;;;9.07;;
66587;SDS011;53446;50.076;8.198;2023-06-01T06:35:30;18.83;;;9.52;;
66587;SDS011;53446;50.076;8.198;2023-06-01T06:37:30;22.10;;;9.63;;
66587;SDS011;53446;50.076;8.198;2023-06-01T06:39:31;18.40;;;9.30;;
66587;SDS011;53446;50.076;8.198;2023-06-01T06:41:32;19.77;;;8.63;;
66587;SDS011;53446;50.076;8.198;2023-06-01T06:43:32;19.03;;;9.30;;
66587;SDS011;53446;50.076;8.198;2023-06-01T06:45:32;18.83;;;8.90;;
66587;SDS011;53446;50.076;8.198;2023-06-01T06:47:33;19.00;;;9.23;;
66587;SDS011;53446;50.076;8.198;2023-06-01T06:49:33;18.73;;;9.55;;
66587;SDS011;53446;50.076;8.198;2023-06-01T06:51:33;18.67;;;9.35;;
66587;SDS011;53446;50.076;8.198;2023-06-01T06:53:34;21.13;;;9.10;;
66587;SDS011;53446;50.076;8.198;2023-06-01T06:55:34;18.97;;;8.73;;
66587;SDS011;53446;50.076;8.198;2023-06-01T06:57:34;19.83;;;9.23;;
66587;SDS011;53446;50.076;8.198;2023-06-01T06:59:35;19.77;;;8.87;;
66587;SDS011;53446;50.076;8.198;2023-06-01T07:01:35;17.58;;;8.10;;
66587;SDS011;53446;50.076;8.198;2023-06-01T07:03:37;17.55;;;8.63;;
66587;SDS011;53446;50.076;8.198;2023-06-01T07:05:38;17.83;;;8.90;;
66587;SDS011;53446;50.076;8.198;2023-06-01T07:07:40;19.03;;;8.43;;
66587;SDS011;53446;50.076;8.198;2023-06-01T07:09:40;18.13;;;8.52;;
66587;SDS011;53446;50.076;8.198;2023-06-01T07:11:41;21.77;;;9.07;;
66587;SDS011;53446;50.076;8.198;2023-06-01T07:13:42;17.10;;;8.27;;
66587;SDS011;53446;50.076;8.198;2023-06-01T07:15:43;18.73;;;8.83;;
66587;SDS011;53446;50.076;8.198;2023-06-01T07:17:43;20.67;;;9.70;;
66587;SDS011;53446;50.076;8.198;2023-06-01T07:19:43;18.27;;;8.70;;
66587;SDS011;53446;50.076;8.198;2023-06-01T07:21:44;17.80;;;9.00;;
66587;SDS011;53446;50.076;8.198;2023-06-01T07:23:45;17.52;;;9.05;;
66587;SDS011;53446;50.076;8.198;2023-06-01T07:25:46;16.67;;;8.15;;
66587;SDS011;53446;50.076;8.198;2023-06-01T07:27:46;19.50;;;9.13;;
66587;SDS011;53446;50.076;8.198;2023-06-01T07:29:48;21.30;;;9.77;;
66587;SDS011;53446;50.076;8.198;2023-06-01T07:31:54;18.30;;;8.65;;
66587;SDS011;53446;50.076;8.198;2023-06-01T07:33:54;18.23;;;8.50;;
66587;SDS011;53446;50.076;8.198;2023-06-01T07:35:57;18.88;;;8.27;;
66587;SDS011;53446;50.076;8.198;2023-06-01T07:37:58;18.43;;;8.23;;
66587;SDS011;53446;50.076;8.198;2023-06-01T07:39:58;21.87;;;10.53;;
66587;SDS011;53446;50.076;8.198;2023-06-01T07:41:58;19.08;;;8.70;;
66587;SDS011;53446;50.076;8.198;2023-06-01T07:44:00;19.90;;;9.75;;
66587;SDS011;53446;50.076;8.198;2023-06-01T07:46:00;16.08;;;7.80;;
66587;SDS011;53446;50.076;8.198;2023-06-01T07:48:00;18.67;;;8.33;;
66587;SDS011;53446;50.076;8.198;2023-06-01T07:50:01;18.37;;;8.73;;
66587;SDS011;53446;50.076;8.198;2023-06-01T07:52:01;19.57;;;8.60;;
66587;SDS011;53446;50.076;8.198;2023-06-01T07:54:02;18.50;;;8.77;;
66587;SDS011;53446;50.076;8.198;2023-06-01T07:56:03;17.53;;;8.30;;
66587;SDS011;53446;50.076;8.198;2023-06-01T07:58:03;19.17;;;8.88;;
66587;SDS011;53446;50.076;8.198;2023-06-01T08:00:05;20.88;;;8.45;;
66587;SDS011;53446;50.076;8.198;2023-06-01T08:02:11;18.25;;;9.35;;
66587;SDS011;53446;50.076;8.198;2023-06-01T08:04:13;18.60;;;8.57;;
66587;SDS011;53446;50.076;8.198;2023-06-01T08:06:14;18.65;;;9.27;;
66587;SDS011;53446;50.076;8.198;2023-06-01T08:08:15;19.02;;;9.07;;
66587;SDS011;53446;50.076;8.198;2023-06-01T08:10:16;21.13;;;10.40;;
66587;SDS011;53446;50.076;8.198;2023-06-01T08:12:16;25.70;;;11.20;;
66587;SDS011;53446;50.076;8.198;2023-06-01T08:14:17;20.90;;;10.00;;
66587;SDS011;53446;50.076;8.198;2023-06-01T08:16:18;25.25;;;11.45;;
66587;SDS011;53446;50.076;8.198;2023-06-01T08:18:19;26.00;;;10.27;;
66587;SDS011;53446;50.076;8.198;2023-06-01T08:20:19;24.93;;;10.43;;
66587;SDS011;53446;50.076;8.198;2023-06-01T08:22:23;26.63;;;10.88;;
66587;SDS011;53446;50.076;8.198;2023-06-01T08:24:24;27.13;;;11.63;;
66587;SDS011;53446;50.076;8.198;2023-06-01T08:26:25;27.27;;;10.90;;
66587;SDS011;53446;50.076;8.198;2023-06-01T08:28:25;21.90;;;9.70;;
66587;SDS011;53446;50.076;8.198;2023-06-01T08:30:26;22.42;;;9.90;;
66587;SDS011;53446;50.076;8.198;2023-06-01T08:32:26;21.13;;;10.10;;
66587;SDS011;53446;50.076;8.198;2023-06-01T08:34:26;22.60;;;10.10;;
66587;SDS011;53446;50.076;8.198;2023-06-01T08:36:27;21.40;;;10.10;;
66587;SDS011;53446;50.076;8.198;2023-06-01T08:38:27;23.20;;;10.13;;
66587;SDS011;53446;50.076;8.198;2023-06-01T08:40:32;20.95;;;9.98;;
66587;SDS011;53446;50.076;8.198;2023-06-01T08:42:39;19.17;;;9.00;;
66587;SDS011;53446;50.076;8.198;2023-06-01T08:44:45;17.92;;;8.85;;
66587;SDS011;53446;50.076;8.198;2023-06-01T08:46:46;20.13;;;8.77;;
66587;SDS011;53446;50.076;8.198;2023-06-01T08:48:47;21.67;;;9.35;;
66587;SDS011;53446;50.076;8.198;2023-06-01T08:50:49;19.88;;;9.48;;
66587;SDS011;53446;50.076;8.198;2023-06-01T08:52:52;21.50;;;9.53;;
66587;SDS011;53446;50.076;8.198;2023-06-01T08:54:55;19.83;;;9.73;;
66587;SDS011;53446;50.076;8.198;2023-06-01T08:57:01;24.95;;;9.50;;
66587;SDS011;53446;50.076;8.198;2023-06-01T08:59:03;18.73;;;8.80;;
66587;SDS011;53446;50.076;8.198;2023-06-01T09:01:04;20.43;;;8.70;;
66587;SDS011;53446;50.076;8.198;2023-06-01T09:03:05;23.63;;;10.60;;
66587;SDS011;53446;50.076;8.198;2023-06-01T09:05:05;19.43;;;9.27;;
66587;SDS011;53446;50.076;8.198;2023-06-01T09:07:06;19.92;;;9.52;;
66587;SDS011;53446;50.076;8.198;2023-06-01T09:09:06;23.98;;;11.43;;
66587;SDS011;53446;50.076;8.198;2023-06-01T09:11:11;20.27;;;9.87;;
66587;SDS011;53446;50.076;8.198;2023-06-01T09:13:11;20.77;;;9.57;;
66587;SDS011;53446;50.076;8.198;2023-06-01T09:15:15;22.83;;;10.20;;
66587;SDS011;53446;50.076;8.198;2023-06-01T09:17:21;21.53;;;9.67;;
66587;SDS011;53446;50.076;8.198;2023-06-01T09:19:22;20.45;;;10.25;;
66587;SDS011;53446;50.076;8.198;2023-06-01T09:21:22;24.37;;;9.70;;
66587;SDS011;53446;50.076;8.198;2023-06-01T09:23:26;21.27;;;10.88;;
66587;SDS011;53446;50.076;8.198;2023-06-01T09:25:30;23.30;;;11.55;;
66587;SDS011;53446;50.076;8.198;2023-06-01T09:27:42;18.17;;;9.05;;
66587;SDS011;53446;50.076;8.198;2023-06-01T09:29:51;22.15;;;10.10;;
66587;SDS011;53446;50.076;8.198;2023-06-01T09:31:53;21.25;;;9.38;;
66587;SDS011;53446;50.076;8.198;2023-06-01T09:34:00;20.52;;;10.07;;
66587;SDS011;53446;50.076;8.198;2023-06-01T09:36:01;21.58;;;10.27;;
66587;SDS011;53446;50.076;8.198;2023-06-01T09:38:01;19.23;;;9.10;;
66587;SDS011;53446;50.076;8.198;2023-06-01T09:40:15;19.08;;;9.52;;
66587;SDS011;53446;50.076;8.198;2023-06-01T09:42:16;20.20;;;9.77;;
66587;SDS011;53446;50.076;8.198;2023-06-01T09:44:38;26.87;;;9.97;;
66587;SDS011;53446;50.076;8.198;2023-06-01T09:48:48;22.20;;;9.77;;
66587;SDS011;53446;50.076;8.198;2023-06-01T09:50:49;20.20;;;8.98;;
66587;SDS011;53446;50.076;8.198;2023-06-01T09:52:57;23.15;;;9.82;;
66587;SDS011;53446;50.076;8.198;2023-06-01T09:55:04;18.73;;;9.02;;
66587;SDS011;53446;50.076;8.198;2023-06-01T09:57:05;21.05;;;9.88;;
66587;SDS011;53446;50.076;8.198;2023-06-01T09:59:06;21.33;;;9.68;;
66587;SDS011;53446;50.076;8.198;2023-06-01T10:01:07;21.07;;;10.47;;
66587;SDS011;53446;50.076;8.198;2023-06-01T10:03:08;21.80;;;10.00;;
66587;SDS011;53446;50.076;8.198;2023-06-01T10:05:09;20.93;;;9.50;;
66587;SDS011;53446;50.076;8.198;2023-06-01T10:07:10;24.60;;;9.93;;
66587;SDS011;53446;50.076;8.198;2023-06-01T10:09:12;19.67;;;9.02;;
66587;SDS011;53446;50.076;8.198;2023-06-01T10:11:18;20.73;;;8.63;;
66587;SDS011;53446;50.076;8.198;2023-06-01T10:13:18;20.70;;;9.80;;
66587;SDS011;53446;50.076;8.198;2023-06-01T10:15:22;19.85;;;9.30;;
66587;SDS011;53446;50.076;8.198;2023-06-01T10:17:22;18.87;;;9.40;;
66587;SDS011;53446;50.076;8.198;2023-06-01T10:19:23;22.10;;;10.37;;
66587;SDS011;53446;50.076;8.198;2023-06-01T10:21:23;21.70;;;8.93;;
66587;SDS011;53446;50.076;8.198;2023-06-01T10:23:24;18.52;;;8.98;;
66587;SDS011;53446;50.076;8.198;2023-06-01T10:25:25;19.77;;;9.10;;
66587;SDS011;53446;50.076;8.198;2023-06-01T10:27:37;19.40;;;9.13;;
66587;SDS011;53446;50.076;8.198;2023-06-01T10:29:39;19.55;;;9.45;;
66587;SDS011;53446;50.076;8.198;2023-06-01T10:31:41;18.83;;;9.18;;
66587;SDS011;53446;50.076;8.198;2023-06-01T10:33:52;19.48;;;9.55;;
66587;SDS011;53446;50.076;8.198;2023-06-01T10:36:00;21.35;;;8.68;;
66587;SDS011;53446;50.076;8.198;2023-06-01T10:44:44;20.05;;;9.23;;
66587;SDS011;53446;50.076;8.198;2023-06-01T10:46:43;19.92;;;9.70;;
66587;SDS011;53446;50.076;8.198;2023-06-01T10:48:53;18.37;;;8.73;;
66587;SDS011;53446;50.076;8.198;2023-06-01T10:55:30;20.65;;;9.18;;
66587;SDS011;53446;50.076;8.198;2023-06-01T10:57:34;19.52;;;8.98;;
66587;SDS011;53446;50.076;8.198;2023-06-01T10:59:35;18.95;;;9.13;;
66587;SDS011;53446;50.076;8.198;2023-06-01T11:01:36;20.47;;;9.40;;
66587;SDS011;53446;50.076;8.198;2023-06-01T11:03:46;17.55;;;8.35;;
66587;SDS011;53446;50.076;8.198;2023-06-01T11:05:48;20.48;;;9.13;;
66587;SDS011;53446;50.076;8.198;2023-06-01T11:07:51;18.55;;;9.57;;
66587;SDS011;53446;50.076;8.198;2023-06-01T11:09:51;18.65;;;8.93;;
66587;SDS011;53446;50.076;8.198;2023-06-01T11:14:05;21.63;;;8.87;;
66587;SDS011;53446;50.076;8.198;2023-06-01T11:20:41;18.60;;;9.57;;
66587;SDS011;53446;50.076;8.198;2023-06-01T11:22:41;19.70;;;9.20;;
66587;SDS011;53446;50.076;8.198;2023-06-01T11:24:42;20.55;;;10.00;;
66587;SDS011;53446;50.076;8.198;2023-06-01T11:26:44;19.95;;;9.32;;
66587;SDS011;53446;50.076;8.198;2023-06-01T11:28:49;20.87;;;9.83;;
66587;SDS011;53446;50.076;8.198;2023-06-01T11:30:49;19.48;;;10.10;;
66587;SDS011;53446;50.076;8.198;2023-06-01T11:32:51;19.95;;;10.48;;
66587;SDS011;53446;50.076;8.198;2023-06-01T11:34:52;17.23;;;8.43;;
66587;SDS011;53446;50.076;8.198;2023-06-01T11:36:53;19.10;;;9.30;;
66587;SDS011;53446;50.076;8.198;2023-06-01T11:38:55;21.60;;;9.93;;
66587;SDS011;53446;50.076;8.198;2023-06-01T11:40:59;18.60;;;9.52;;
66587;SDS011;53446;50.076;8.198;2023-06-01T11:43:00;19.77;;;9.43;;
66587;SDS011;53446;50.076;8.198;2023-06-01T11:45:00;17.83;;;9.00;;
66587;SDS011;53446;50.076;8.198;2023-06-01T11:47:01;17.40;;;8.83;;
66587;SDS011;53446;50.076;8.198;2023-06-01T11:49:02;16.67;;;8.50;;
66587;SDS011;53446;50.076;8.198;2023-06-01T11:51:07;19.08;;;9.07;;
66587;SDS011;53446;50.076;8.198;2023-06-01T11:53:07;19.95;;;9.57;;
66587;SDS011;53446;50.076;8.198;2023-06-01T11:55:07;19.10;;;8.83;;
66587;SDS011;53446;50.076;8.198;2023-06-01T11:57:08;19.38;;;8.55;;
66587;SDS011;53446;50.076;8.198;2023-06-01T11:59:10;18.83;;;9.65;;
66587;SDS011;53446;50.076;8.198;2023-06-01T12:01:11;17.83;;;9.05;;
66587;SDS011;53446;50.076;8.198;2023-06-01T12:03:11;17.50;;;8.63;;
66587;SDS011;53446;50.076;8.198;2023-06-01T12:05:11;19.13;;;8.40;;
66587;SDS011;53446;50.076;8.198;2023-06-01T12:07:13;17.25;;;9.20;;
66587;SDS011;53446;50.076;8.198;2023-06-01T12:09:14;18.80;;;8.43;;
66587;SDS011;53446;50.076;8.198;2023-06-01T12:11:15;14.75;;;8.05;;
66587;SDS011;53446;50.076;8.198;2023-06-01T12:13:18;17.25;;;8.23;;
66587;SDS011;53446;50.076;8.198;2023-06-01T12:15:19;18.08;;;8.32;;
66587;SDS011;53446;50.076;8.198;2023-06-01T12:17:20;16.20;;;8.20;;
66587;SDS011;53446;50.076;8.198;2023-06-01T12:19:20;15.60;;;8.38;;
66587;SDS011;53446;50.076;8.198;2023-06-01T12:21:21;16.65;;;8.35;;
66587;SDS011;53446;50.076;8.198;2023-06-01T12:23:21;16.90;;;8.70;;
66587;SDS011;53446;50.076;8.198;2023-06-01T12:25:22;16.60;;;7.77;;
66587;SDS011;53446;50.076;8.198;2023-06-01T12:27:23;14.75;;;7.75;;
66587;SDS011;53446;50.076;8.198;2023-06-01T12:31:39;15.85;;;8.10;;